sensor_id;sensor_type;location;lat;lon;timestamp;temperature;humidity
14411;DHT22;7290;50.854;4.354;2023-02-28T00:00:14;3.90;99.90
14411;DHT22;7290;50.854;4.354;2023-02-28T00:02:42;3.90;99.90
14411;DHT22;7290;50.854;4.354;2023-02-28T00:05:10;3.90;99.90
14411;DHT22;7290;50.854;4.354;2023-02-28T00:07:36;4.00;99.90
14411;DHT22;7290;50.854;4.354;2023-02-28T00:10:03;4.00;99.90
14411;DHT22;7290;50.854;4.354;2023-02-28T00:12:32;3.80;99.90
14411;DHT22;7290;50.854;4.354;2023-02-28T00:14:58;3.70;99.90
14411;DHT22;7290;50.854;4.354;2023-02-28T00:17:24;3.70;99.90
14411;DHT22;7290;50.854;4.354;2023-02-28T00:19:51;3.70;99.90
14411;DHT22;7290;50.854;4.354;2023-02-28T00:22:19;3.70;99.90
14411;DHT22;7290;50.854;4.354;2023-02-28T00:24:45;3.50;99.90
14411;DHT22;7290;50.854;4.354;2023-02-28T00:27:12;3.50;99.90
14411;DHT22;7290;50.854;4.354;2023-02-28T00:29:39;3.50;99.90
14411;DHT22;7290;50.854;4.354;2023-02-28T00:32:06;3.60;99.90
14411;DHT22;7290;50.854;4.354;2023-02-28T00:34:32;3.50;99.90
14411;DHT22;7290;50.854;4.354;2023-02-28T00:37:03;3.50;99.90
14411;DHT22;7290;50.854;4.354;2023-02-28T00:39:30;3.50;99.90
14411;DHT22;7290;50.854;4.354;2023-02-28T00:41:57;3.50;99.90
14411;DHT22;7290;50.854;4.354;2023-02-28T00:44:23;3.40;99.90
14411;DHT22;7290;50.854;4.354;2023-02-28T00:46:50;3.50;99.90
14411;DHT22;7290;50.854;4.354;2023-02-28T00:49:17;3.40;99.90
14411;DHT22;7290;50.854;4.354;2023-02-28T00:51:43;3.40;99.90
14411;DHT22;7290;50.854;4.354;2023-02-28T00:54:09;3.40;99.90
14411;DHT22;7290;50.854;4.354;2023-02-28T00:56:35;3.50;99.90
14411;DHT22;7290;50.854;4.354;2023-02-28T00:59:01;3.50;99.90
14411;DHT22;7290;50.854;4.354;2023-02-28T01:01:27;3.50;99.90
14411;DHT22;7290;50.854;4.354;2023-02-28T01:03:54;3.40;99.90
14411;DHT22;7290;50.854;4.354;2023-02-28T01:06:20;3.40;99.90
14411;DHT22;7290;50.854;4.354;2023-02-28T01:08:46;3.40;99.90
14411;DHT22;7290;50.854;4.354;2023-02-28T01:11:14;3.50;99.90
14411;DHT22;7290;50.854;4.354;2023-02-28T01:13:41;3.50;99.90
14411;DHT22;7290;50.854;4.354;2023-02-28T01:16:07;3.60;99.90
14411;DHT22;7290;50.854;4.354;2023-02-28T01:18:34;3.70;99.90
14411;DHT22;7290;50.854;4.354;2023-02-28T01:21:04;3.70;99.90
14411;DHT22;7290;50.854;4.354;2023-02-28T01:23:30;3.60;99.90
14411;DHT22;7290;50.854;4.354;2023-02-28T01:25:56;3.50;99.90
14411;DHT22;7290;50.854;4.354;2023-02-28T01:28:22;3.40;99.90
14411;DHT22;7290;50.854;4.354;2023-02-28T01:30:48;3.30;99.90
14411;DHT22;7290;50.854;4.354;2023-02-28T01:33:14;3.30;99.90
14411;DHT22;7290;50.854;4.354;2023-02-28T01:35:40;3.20;99.90
14411;DHT22;7290;50.854;4.354;2023-02-28T01:38:07;3.20;99.90
14411;DHT22;7290;50.854;4.354;2023-02-28T01:40:33;3.00;99.90
14411;DHT22;7290;50.854;4.354;2023-02-28T01:42:59;3.10;99.90
14411;DHT22;7290;50.854;4.354;2023-02-28T01:45:27;3.00;99.90
14411;DHT22;7290;50.854;4.354;2023-02-28T01:47:57;3.00;99.90
14411;DHT22;7290;50.854;4.354;2023-02-28T01:50:28;3.10;99.90
14411;DHT22;7290;50.854;4.354;2023-02-28T01:52:56;3.10;99.90
14411;DHT22;7290;50.854;4.354;2023-02-28T01:55:26;3.00;99.90
14411;DHT22;7290;50.854;4.354;2023-02-28T01:57:56;3.10;99.90
14411;DHT22;7290;50.854;4.354;2023-02-28T02:00:26;3.00;99.90
14411;DHT22;7290;50.854;4.354;2023-02-28T02:02:55;3.10;99.90
14411;DHT22;7290;50.854;4.354;2023-02-28T02:05:24;3.10;99.90
14411;DHT22;7290;50.854;4.354;2023-02-28T02:07:54;3.00;99.90
14411;DHT22;7290;50.854;4.354;2023-02-28T02:10:27;3.00;99.90
14411;DHT22;7290;50.854;4.354;2023-02-28T02:13:05;3.00;99.90
14411;DHT22;7290;50.854;4.354;2023-02-28T02:15:36;2.90;99.90
14411;DHT22;7290;50.854;4.354;2023-02-28T02:18:09;2.90;99.90
14411;DHT22;7290;50.854;4.354;2023-02-28T02:21:09;2.90;99.90
14411;DHT22;7290;50.854;4.354;2023-02-28T02:24:02;3.00;99.90
14411;DHT22;7290;50.854;4.354;2023-02-28T02:27:04;3.00;99.90
14411;DHT22;7290;50.854;4.354;2023-02-28T02:29:55;3.00;99.90
14411;DHT22;7290;50.854;4.354;2023-02-28T02:32:49;3.00;99.90
14411;DHT22;7290;50.854;4.354;2023-02-28T02:35:25;3.00;99.90
14411;DHT22;7290;50.854;4.354;2023-02-28T02:37:58;3.20;99.90
14411;DHT22;7290;50.854;4.354;2023-02-28T02:40:35;3.30;99.90
14411;DHT22;7290;50.854;4.354;2023-02-28T02:43:04;3.30;99.90
14411;DHT22;7290;50.854;4.354;2023-02-28T02:45:35;3.30;99.90
14411;DHT22;7290;50.854;4.354;2023-02-28T02:48:06;3.20;99.90
14411;DHT22;7290;50.854;4.354;2023-02-28T02:50:37;3.20;99.90
14411;DHT22;7290;50.854;4.354;2023-02-28T02:53:06;3.20;99.90
14411;DHT22;7290;50.854;4.354;2023-02-28T02:55:36;2.90;99.90
14411;DHT22;7290;50.854;4.354;2023-02-28T02:58:06;2.80;99.90
14411;DHT22;7290;50.854;4.354;2023-02-28T03:00:37;2.80;99.90
14411;DHT22;7290;50.854;4.354;2023-02-28T03:03:04;2.70;99.90
14411;DHT22;7290;50.854;4.354;2023-02-28T03:05:35;2.80;99.90
14411;DHT22;7290;50.854;4.354;2023-02-28T03:08:05;2.80;99.90
14411;DHT22;7290;50.854;4.354;2023-02-28T03:10:35;2.70;99.90
14411;DHT22;7290;50.854;4.354;2023-02-28T03:16:02;2.80;99.90
14411;DHT22;7290;50.854;4.354;2023-02-28T03:18:37;2.70;99.90
14411;DHT22;7290;50.854;4.354;2023-02-28T03:21:15;2.70;99.90
14411;DHT22;7290;50.854;4.354;2023-02-28T03:23:48;2.70;99.90
14411;DHT22;7290;50.854;4.354;2023-02-28T03:26:20;2.80;99.90
14411;DHT22;7290;50.854;4.354;2023-02-28T03:28:53;2.80;99.90
14411;DHT22;7290;50.854;4.354;2023-02-28T03:31:27;2.60;99.90
14411;DHT22;7290;50.854;4.354;2023-02-28T03:34:01;2.60;99.90
14411;DHT22;7290;50.854;4.354;2023-02-28T03:36:29;2.50;99.90
14411;DHT22;7290;50.854;4.354;2023-02-28T03:38:59;2.50;99.90
14411;DHT22;7290;50.854;4.354;2023-02-28T03:41:32;2.50;99.90
14411;DHT22;7290;50.854;4.354;2023-02-28T03:44:02;2.40;99.90
14411;DHT22;7290;50.854;4.354;2023-02-28T03:46:34;2.60;99.90
14411;DHT22;7290;50.854;4.354;2023-02-28T03:49:06;2.50;99.90
14411;DHT22;7290;50.854;4.354;2023-02-28T03:51:35;2.50;99.90
14411;DHT22;7290;50.854;4.354;2023-02-28T03:54:06;2.60;99.90
14411;DHT22;7290;50.854;4.354;2023-02-28T03:56:38;2.60;99.90
14411;DHT22;7290;50.854;4.354;2023-02-28T03:59:09;2.60;99.90
14411;DHT22;7290;50.854;4.354;2023-02-28T04:01:41;2.70;99.90
14411;DHT22;7290;50.854;4.354;2023-02-28T04:04:09;2.50;99.90
14411;DHT22;7290;50.854;4.354;2023-02-28T04:06:37;2.60;99.90
14411;DHT22;7290;50.854;4.354;2023-02-28T04:09:05;2.70;99.90
14411;DHT22;7290;50.854;4.354;2023-02-28T04:11:33;2.50;99.90
14411;DHT22;7290;50.854;4.354;2023-02-28T04:14:00;2.60;99.90
14411;DHT22;7290;50.854;4.354;2023-02-28T04:16:27;2.40;99.90
14411;DHT22;7290;50.854;4.354;2023-02-28T04:18:53;2.20;99.90
14411;DHT22;7290;50.854;4.354;2023-02-28T04:21:29;2.10;99.90
14411;DHT22;7290;50.854;4.354;2023-02-28T04:23:56;2.10;99.90
14411;DHT22;7290;50.854;4.354;2023-02-28T04:26:28;2.30;99.90
14411;DHT22;7290;50.854;4.354;2023-02-28T04:28:55;2.30;99.90
14411;DHT22;7290;50.854;4.354;2023-02-28T04:31:21;2.30;99.90
14411;DHT22;7290;50.854;4.354;2023-02-28T04:33:47;2.50;99.90
14411;DHT22;7290;50.854;4.354;2023-02-28T04:36:13;2.70;99.90
14411;DHT22;7290;50.854;4.354;2023-02-28T04:38:40;2.80;99.90
14411;DHT22;7290;50.854;4.354;2023-02-28T04:41:07;2.80;99.90
14411;DHT22;7290;50.854;4.354;2023-02-28T04:43:33;2.70;99.90
14411;DHT22;7290;50.854;4.354;2023-02-28T04:46:02;2.80;99.90
14411;DHT22;7290;50.854;4.354;2023-02-28T04:48:30;2.80;99.90
14411;DHT22;7290;50.854;4.354;2023-02-28T04:51:00;2.60;99.90
14411;DHT22;7290;50.854;4.354;2023-02-28T04:53:27;2.60;99.90
14411;DHT22;7290;50.854;4.354;2023-02-28T04:55:53;2.50;99.90
14411;DHT22;7290;50.854;4.354;2023-02-28T04:58:20;2.40;99.90
14411;DHT22;7290;50.854;4.354;2023-02-28T05:00:48;2.40;99.90
14411;DHT22;7290;50.854;4.354;2023-02-28T05:03:14;2.40;99.90
14411;DHT22;7290;50.854;4.354;2023-02-28T05:05:40;2.30;99.90
14411;DHT22;7290;50.854;4.354;2023-02-28T05:08:06;2.40;99.90
14411;DHT22;7290;50.854;4.354;2023-02-28T05:10:32;2.30;99.90
14411;DHT22;7290;50.854;4.354;2023-02-28T05:12:58;2.30;99.90
14411;DHT22;7290;50.854;4.354;2023-02-28T05:15:25;2.30;99.90
14411;DHT22;7290;50.854;4.354;2023-02-28T05:17:51;2.30;99.90
14411;DHT22;7290;50.854;4.354;2023-02-28T05:20:17;2.30;99.90
14411;DHT22;7290;50.854;4.354;2023-02-28T05:22:44;2.40;99.90
14411;DHT22;7290;50.854;4.354;2023-02-28T05:25:12;2.50;99.90
14411;DHT22;7290;50.854;4.354;2023-02-28T05:27:38;2.70;99.90
14411;DHT22;7290;50.854;4.354;2023-02-28T05:30:05;2.50;99.90
14411;DHT22;7290;50.854;4.354;2023-02-28T05:32:32;2.50;99.90
14411;DHT22;7290;50.854;4.354;2023-02-28T05:34:58;2.50;99.90
14411;DHT22;7290;50.854;4.354;2023-02-28T05:37:24;2.70;99.90
14411;DHT22;7290;50.854;4.354;2023-02-28T05:39:50;2.80;99.90
14411;DHT22;7290;50.854;4.354;2023-02-28T05:42:16;2.90;99.90
14411;DHT22;7290;50.854;4.354;2023-02-28T05:44:42;2.90;99.90
14411;DHT22;7290;50.854;4.354;2023-02-28T05:47:08;2.60;99.90
14411;DHT22;7290;50.854;4.354;2023-02-28T05:49:35;2.40;99.90
14411;DHT22;7290;50.854;4.354;2023-02-28T05:52:01;2.30;99.90
14411;DHT22;7290;50.854;4.354;2023-02-28T05:54:27;2.50;99.90
14411;DHT22;7290;50.854;4.354;2023-02-28T05:56:53;2.60;99.90
14411;DHT22;7290;50.854;4.354;2023-02-28T05:59:19;2.80;99.90
14411;DHT22;7290;50.854;4.354;2023-02-28T06:01:46;2.80;99.90
14411;DHT22;7290;50.854;4.354;2023-02-28T06:04:15;3.00;99.90
14411;DHT22;7290;50.854;4.354;2023-02-28T06:06:43;3.10;99.90
14411;DHT22;7290;50.854;4.354;2023-02-28T06:09:10;3.10;99.90
14411;DHT22;7290;50.854;4.354;2023-02-28T06:11:37;3.00;99.90
14411;DHT22;7290;50.854;4.354;2023-02-28T06:14:03;3.00;99.90
14411;DHT22;7290;50.854;4.354;2023-02-28T06:16:31;2.90;99.90
14411;DHT22;7290;50.854;4.354;2023-02-28T06:19:01;2.70;99.90
14411;DHT22;7290;50.854;4.354;2023-02-28T06:21:27;2.70;99.90
14411;DHT22;7290;50.854;4.354;2023-02-28T06:23:55;2.80;99.90
14411;DHT22;7290;50.854;4.354;2023-02-28T06:26:21;2.80;99.90
14411;DHT22;7290;50.854;4.354;2023-02-28T06:28:48;2.90;99.90
14411;DHT22;7290;50.854;4.354;2023-02-28T06:31:16;3.10;99.90
14411;DHT22;7290;50.854;4.354;2023-02-28T06:33:43;3.20;99.90
14411;DHT22;7290;50.854;4.354;2023-02-28T06:36:11;3.20;99.90
14411;DHT22;7290;50.854;4.354;2023-02-28T06:38:38;3.10;99.90
14411;DHT22;7290;50.854;4.354;2023-02-28T06:41:05;3.10;99.90
14411;DHT22;7290;50.854;4.354;2023-02-28T06:43:34;3.00;99.90
14411;DHT22;7290;50.854;4.354;2023-02-28T06:46:03;3.00;99.90
14411;DHT22;7290;50.854;4.354;2023-02-28T06:48:29;3.10;99.90
14411;DHT22;7290;50.854;4.354;2023-02-28T06:51:02;3.10;99.90
14411;DHT22;7290;50.854;4.354;2023-02-28T06:53:29;3.20;99.90
14411;DHT22;7290;50.854;4.354;2023-02-28T06:55:55;3.30;99.90
14411;DHT22;7290;50.854;4.354;2023-02-28T06:58:21;3.40;99.90
14411;DHT22;7290;50.854;4.354;2023-02-28T07:00:50;3.50;99.90
14411;DHT22;7290;50.854;4.354;2023-02-28T07:03:17;3.40;99.90
14411;DHT22;7290;50.854;4.354;2023-02-28T07:05:44;3.30;99.90
14411;DHT22;7290;50.854;4.354;2023-02-28T07:08:10;3.50;99.90
14411;DHT22;7290;50.854;4.354;2023-02-28T07:10:37;3.40;99.90
14411;DHT22;7290;50.854;4.354;2023-02-28T07:13:04;3.10;99.90
14411;DHT22;7290;50.854;4.354;2023-02-28T07:15:31;3.20;99.90
14411;DHT22;7290;50.854;4.354;2023-02-28T07:17:57;3.30;99.90
14411;DHT22;7290;50.854;4.354;2023-02-28T07:20:23;3.40;99.90
14411;DHT22;7290;50.854;4.354;2023-02-28T07:22:49;3.60;99.90
14411;DHT22;7290;50.854;4.354;2023-02-28T07:25:21;3.80;99.90
14411;DHT22;7290;50.854;4.354;2023-02-28T07:27:48;4.00;99.90
14411;DHT22;7290;50.854;4.354;2023-02-28T07:30:14;4.10;99.90
14411;DHT22;7290;50.854;4.354;2023-02-28T07:32:41;4.20;99.90
14411;DHT22;7290;50.854;4.354;2023-02-28T07:35:08;4.10;99.90
14411;DHT22;7290;50.854;4.354;2023-02-28T07:37:34;4.00;99.90
14411;DHT22;7290;50.854;4.354;2023-02-28T07:40:02;4.10;99.90
14411;DHT22;7290;50.854;4.354;2023-02-28T07:42:32;4.30;99.90
14411;DHT22;7290;50.854;4.354;2023-02-28T07:44:58;4.30;99.90
14411;DHT22;7290;50.854;4.354;2023-02-28T07:47:24;4.30;99.90
14411;DHT22;7290;50.854;4.354;2023-02-28T07:49:51;4.10;99.90
14411;DHT22;7290;50.854;4.354;2023-02-28T07:52:17;4.10;99.90
14411;DHT22;7290;50.854;4.354;2023-02-28T07:54:43;4.10;99.90
14411;DHT22;7290;50.854;4.354;2023-02-28T07:57:09;4.20;99.90
14411;DHT22;7290;50.854;4.354;2023-02-28T07:59:35;4.30;99.90
14411;DHT22;7290;50.854;4.354;2023-02-28T08:02:02;4.30;99.90
14411;DHT22;7290;50.854;4.354;2023-02-28T08:04:28;4.30;99.90
14411;DHT22;7290;50.854;4.354;2023-02-28T08:06:57;4.10;99.90
14411;DHT22;7290;50.854;4.354;2023-02-28T08:09:24;3.80;99.90
14411;DHT22;7290;50.854;4.354;2023-02-28T08:11:50;3.50;99.90
14411;DHT22;7290;50.854;4.354;2023-02-28T08:14:16;3.70;99.90
14411;DHT22;7290;50.854;4.354;2023-02-28T08:16:42;4.00;99.90
14411;DHT22;7290;50.854;4.354;2023-02-28T08:19:08;3.90;99.90
14411;DHT22;7290;50.854;4.354;2023-02-28T08:21:34;4.00;99.90
14411;DHT22;7290;50.854;4.354;2023-02-28T08:24:01;4.00;99.90
14411;DHT22;7290;50.854;4.354;2023-02-28T08:26:27;4.00;99.90
14411;DHT22;7290;50.854;4.354;2023-02-28T08:28:53;4.10;99.90
14411;DHT22;7290;50.854;4.354;2023-02-28T08:31:19;3.70;99.90
14411;DHT22;7290;50.854;4.354;2023-02-28T08:33:46;3.70;99.90
14411;DHT22;7290;50.854;4.354;2023-02-28T08:36:14;4.10;99.90
14411;DHT22;7290;50.854;4.354;2023-02-28T08:38:40;4.50;99.90
14411;DHT22;7290;50.854;4.354;2023-02-28T08:41:10;4.20;99.90
14411;DHT22;7290;50.854;4.354;2023-02-28T08:43:37;4.50;99.90
14411;DHT22;7290;50.854;4.354;2023-02-28T08:46:04;4.30;99.90
14411;DHT22;7290;50.854;4.354;2023-02-28T08:48:33;3.50;99.90
14411;DHT22;7290;50.854;4.354;2023-02-28T08:51:01;3.40;99.90
14411;DHT22;7290;50.854;4.354;2023-02-28T08:53:28;3.40;99.90
14411;DHT22;7290;50.854;4.354;2023-02-28T08:55:58;3.10;99.90
14411;DHT22;7290;50.854;4.354;2023-02-28T08:58:26;3.30;99.90
14411;DHT22;7290;50.854;4.354;2023-02-28T09:00:54;3.20;99.90
14411;DHT22;7290;50.854;4.354;2023-02-28T09:03:21;3.10;99.90
14411;DHT22;7290;50.854;4.354;2023-02-28T09:05:58;3.10;99.90
14411;DHT22;7290;50.854;4.354;2023-02-28T09:08:26;3.00;99.90
14411;DHT22;7290;50.854;4.354;2023-02-28T09:10:52;3.00;99.90
14411;DHT22;7290;50.854;4.354;2023-02-28T09:13:20;3.20;99.90
14411;DHT22;7290;50.854;4.354;2023-02-28T09:15:47;3.20;99.90
14411;DHT22;7290;50.854;4.354;2023-02-28T09:18:13;3.30;99.90
14411;DHT22;7290;50.854;4.354;2023-02-28T09:20:39;3.10;99.90
14411;DHT22;7290;50.854;4.354;2023-02-28T09:23:09;3.10;99.90
14411;DHT22;7290;50.854;4.354;2023-02-28T09:25:36;3.20;99.90
14411;DHT22;7290;50.854;4.354;2023-02-28T09:28:03;3.20;99.90
14411;DHT22;7290;50.854;4.354;2023-02-28T09:30:29;3.40;99.90
14411;DHT22;7290;50.854;4.354;2023-02-28T09:32:56;3.60;99.90
14411;DHT22;7290;50.854;4.354;2023-02-28T09:35:23;3.60;99.90
14411;DHT22;7290;50.854;4.354;2023-02-28T09:37:51;3.60;99.90
14411;DHT22;7290;50.854;4.354;2023-02-28T09:40:18;3.80;99.90
14411;DHT22;7290;50.854;4.354;2023-02-28T09:42:46;4.00;99.90
14411;DHT22;7290;50.854;4.354;2023-02-28T09:45:22;4.20;99.90
14411;DHT22;7290;50.854;4.354;2023-02-28T09:47:50;4.40;99.90
14411;DHT22;7290;50.854;4.354;2023-02-28T09:50:27;4.60;99.90
14411;DHT22;7290;50.854;4.354;2023-02-28T09:52:55;4.50;99.90
14411;DHT22;7290;50.854;4.354;2023-02-28T09:55:25;4.30;99.90
14411;DHT22;7290;50.854;4.354;2023-02-28T09:57:54;4.20;99.90
14411;DHT22;7290;50.854;4.354;2023-02-28T10:00:27;4.30;99.90
14411;DHT22;7290;50.854;4.354;2023-02-28T10:03:04;4.90;99.90
14411;DHT22;7290;50.854;4.354;2023-02-28T10:05:36;6.40;99.90
14411;DHT22;7290;50.854;4.354;2023-02-28T10:08:10;7.30;98.30
14411;DHT22;7290;50.854;4.354;2023-02-28T10:10:40;6.40;98.90
14411;DHT22;7290;50.854;4.354;2023-02-28T10:13:14;7.60;98.20
14411;DHT22;7290;50.854;4.354;2023-02-28T10:15:42;8.00;96.50
14411;DHT22;7290;50.854;4.354;2023-02-28T10:18:14;9.00;94.70
14411;DHT22;7290;50.854;4.354;2023-02-28T10:20:43;8.20;95.60
14411;DHT22;7290;50.854;4.354;2023-02-28T10:23:14;9.20;95.00
14411;DHT22;7290;50.854;4.354;2023-02-28T10:25:46;10.10;92.80
14411;DHT22;7290;50.854;4.354;2023-02-28T10:28:15;10.30;92.60
14411;DHT22;7290;50.854;4.354;2023-02-28T10:30:43;10.60;91.70
14411;DHT22;7290;50.854;4.354;2023-02-28T10:33:21;8.70;93.40
14411;DHT22;7290;50.854;4.354;2023-02-28T10:35:48;9.20;93.10
14411;DHT22;7290;50.854;4.354;2023-02-28T10:38:17;8.40;93.70
14411;DHT22;7290;50.854;4.354;2023-02-28T10:40:43;8.80;92.80
14411;DHT22;7290;50.854;4.354;2023-02-28T10:43:19;9.10;92.20
14411;DHT22;7290;50.854;4.354;2023-02-28T10:45:55;9.80;90.80
14411;DHT22;7290;50.854;4.354;2023-02-28T10:48:32;11.70;86.40
14411;DHT22;7290;50.854;4.354;2023-02-28T10:50:59;10.00;87.00
14411;DHT22;7290;50.854;4.354;2023-02-28T10:53:34;9.70;88.00
14411;DHT22;7290;50.854;4.354;2023-02-28T10:56:03;11.60;86.40
14411;DHT22;7290;50.854;4.354;2023-02-28T10:58:31;12.10;84.40
14411;DHT22;7290;50.854;4.354;2023-02-28T11:00:59;12.20;82.40
14411;DHT22;7290;50.854;4.354;2023-02-28T11:03:31;12.80;79.00
14411;DHT22;7290;50.854;4.354;2023-02-28T11:06:04;12.90;79.80
14411;DHT22;7290;50.854;4.354;2023-02-28T11:08:31;14.30;76.90
14411;DHT22;7290;50.854;4.354;2023-02-28T11:11:00;14.20;74.20
14411;DHT22;7290;50.854;4.354;2023-02-28T11:13:32;14.80;75.10
14411;DHT22;7290;50.854;4.354;2023-02-28T11:16:02;14.30;72.40
14411;DHT22;7290;50.854;4.354;2023-02-28T11:18:30;12.80;76.60
14411;DHT22;7290;50.854;4.354;2023-02-28T11:21:01;14.10;74.20
14411;DHT22;7290;50.854;4.354;2023-02-28T11:23:30;13.20;75.40
14411;DHT22;7290;50.854;4.354;2023-02-28T11:26:00;11.90;76.20
14411;DHT22;7290;50.854;4.354;2023-02-28T11:28:29;11.70;80.60
14411;DHT22;7290;50.854;4.354;2023-02-28T11:31:02;12.30;78.80
14411;DHT22;7290;50.854;4.354;2023-02-28T11:33:30;12.30;77.20
14411;DHT22;7290;50.854;4.354;2023-02-28T11:36:01;13.10;76.50
14411;DHT22;7290;50.854;4.354;2023-02-28T11:38:28;11.80;76.60
14411;DHT22;7290;50.854;4.354;2023-02-28T11:41:10;11.60;77.30
14411;DHT22;7290;50.854;4.354;2023-02-28T11:43:51;13.40;76.90
14411;DHT22;7290;50.854;4.354;2023-02-28T11:46:24;15.00;73.60
14411;DHT22;7290;50.854;4.354;2023-02-28T11:48:58;16.00;69.40
14411;DHT22;7290;50.854;4.354;2023-02-28T11:51:32;15.40;69.20
14411;DHT22;7290;50.854;4.354;2023-02-28T11:54:13;13.40;71.10
14411;DHT22;7290;50.854;4.354;2023-02-28T11:56:46;13.00;73.80
14411;DHT22;7290;50.854;4.354;2023-02-28T11:59:28;10.30;77.20
14411;DHT22;7290;50.854;4.354;2023-02-28T12:02:16;8.90;81.10
14411;DHT22;7290;50.854;4.354;2023-02-28T12:04:52;9.30;82.00
14411;DHT22;7290;50.854;4.354;2023-02-28T12:07:25;10.20;79.90
14411;DHT22;7290;50.854;4.354;2023-02-28T12:10:04;9.90;81.40
14411;DHT22;7290;50.854;4.354;2023-02-28T12:12:50;10.60;80.10
14411;DHT22;7290;50.854;4.354;2023-02-28T12:15:37;8.70;80.80
14411;DHT22;7290;50.854;4.354;2023-02-28T12:18:21;9.40;83.20
14411;DHT22;7290;50.854;4.354;2023-02-28T12:20:54;9.60;81.50
14411;DHT22;7290;50.854;4.354;2023-02-28T12:23:52;10.40;80.90
14411;DHT22;7290;50.854;4.354;2023-02-28T12:26:29;12.30;78.00
14411;DHT22;7290;50.854;4.354;2023-02-28T12:29:00;13.60;74.10
14411;DHT22;7290;50.854;4.354;2023-02-28T12:31:34;14.40;73.20
14411;DHT22;7290;50.854;4.354;2023-02-28T12:34:04;14.60;71.30
14411;DHT22;7290;50.854;4.354;2023-02-28T12:36:34;12.80;73.50
14411;DHT22;7290;50.854;4.354;2023-02-28T12:39:06;13.40;73.50
14411;DHT22;7290;50.854;4.354;2023-02-28T12:41:39;12.40;73.60
14411;DHT22;7290;50.854;4.354;2023-02-28T12:44:09;12.70;74.40
14411;DHT22;7290;50.854;4.354;2023-02-28T12:46:41;11.20;74.20
14411;DHT22;7290;50.854;4.354;2023-02-28T12:49:12;10.50;77.90
14411;DHT22;7290;50.854;4.354;2023-02-28T12:51:39;11.10;77.60
14411;DHT22;7290;50.854;4.354;2023-02-28T12:54:13;11.80;76.80
14411;DHT22;7290;50.854;4.354;2023-02-28T12:56:48;10.10;76.50
14411;DHT22;7290;50.854;4.354;2023-02-28T12:59:23;9.40;78.10
14411;DHT22;7290;50.854;4.354;2023-02-28T13:05:08;8.70;80.30
14411;DHT22;7290;50.854;4.354;2023-02-28T13:08:01;8.10;81.50
14411;DHT22;7290;50.854;4.354;2023-02-28T13:10:40;7.50;83.20
14411;DHT22;7290;50.854;4.354;2023-02-28T13:13:11;7.40;84.50
14411;DHT22;7290;50.854;4.354;2023-02-28T13:15:39;8.00;84.80
14411;DHT22;7290;50.854;4.354;2023-02-28T13:18:31;7.50;83.60
14411;DHT22;7290;50.854;4.354;2023-02-28T13:20:59;7.30;84.80
14411;DHT22;7290;50.854;4.354;2023-02-28T13:23:39;7.40;84.40
14411;DHT22;7290;50.854;4.354;2023-02-28T13:26:06;7.90;83.50
14411;DHT22;7290;50.854;4.354;2023-02-28T13:29:20;8.20;83.10
14411;DHT22;7290;50.854;4.354;2023-02-28T13:35:38;7.40;83.50
14411;DHT22;7290;50.854;4.354;2023-02-28T13:38:34;7.10;84.40
14411;DHT22;7290;50.854;4.354;2023-02-28T13:44:08;6.80;84.20
14411;DHT22;7290;50.854;4.354;2023-02-28T13:46:37;6.20;85.30
14411;DHT22;7290;50.854;4.354;2023-02-28T13:49:25;6.40;86.40
14411;DHT22;7290;50.854;4.354;2023-02-28T13:51:56;6.70;85.60
14411;DHT22;7290;50.854;4.354;2023-02-28T13:54:35;7.10;86.00
14411;DHT22;7290;50.854;4.354;2023-02-28T13:57:17;7.50;84.60
14411;DHT22;7290;50.854;4.354;2023-02-28T13:59:55;7.00;83.90
14411;DHT22;7290;50.854;4.354;2023-02-28T14:02:38;6.70;84.90
14411;DHT22;7290;50.854;4.354;2023-02-28T14:05:13;6.10;85.50
14411;DHT22;7290;50.854;4.354;2023-02-28T14:07:44;6.40;86.30
14411;DHT22;7290;50.854;4.354;2023-02-28T14:10:22;6.70;85.80
14411;DHT22;7290;50.854;4.354;2023-02-28T14:13:02;6.60;85.70
14411;DHT22;7290;50.854;4.354;2023-02-28T14:15:50;6.40;86.30
14411;DHT22;7290;50.854;4.354;2023-02-28T14:18:24;6.40;87.00
14411;DHT22;7290;50.854;4.354;2023-02-28T14:21:14;6.40;86.70
14411;DHT22;7290;50.854;4.354;2023-02-28T14:24:01;6.40;86.80
14411;DHT22;7290;50.854;4.354;2023-02-28T14:26:52;6.80;86.80
14411;DHT22;7290;50.854;4.354;2023-02-28T14:32:26;6.50;86.40
14411;DHT22;7290;50.854;4.354;2023-02-28T14:34:55;6.30;87.10
14411;DHT22;7290;50.854;4.354;2023-02-28T14:37:27;6.50;87.10
14411;DHT22;7290;50.854;4.354;2023-02-28T14:39:54;6.30;86.80
14411;DHT22;7290;50.854;4.354;2023-02-28T14:42:29;6.30;87.40
14411;DHT22;7290;50.854;4.354;2023-02-28T14:44:56;6.40;87.30
14411;DHT22;7290;50.854;4.354;2023-02-28T14:47:26;6.30;87.40
14411;DHT22;7290;50.854;4.354;2023-02-28T14:49:53;6.20;87.80
14411;DHT22;7290;50.854;4.354;2023-02-28T14:52:22;6.40;88.40
14411;DHT22;7290;50.854;4.354;2023-02-28T14:54:52;6.70;88.20
14411;DHT22;7290;50.854;4.354;2023-02-28T14:57:23;7.10;87.00
14411;DHT22;7290;50.854;4.354;2023-02-28T14:59:58;7.20;86.30
14411;DHT22;7290;50.854;4.354;2023-02-28T15:02:29;7.30;86.00
14411;DHT22;7290;50.854;4.354;2023-02-28T15:04:58;6.90;86.10
14411;DHT22;7290;50.854;4.354;2023-02-28T15:07:24;6.50;87.70
14411;DHT22;7290;50.854;4.354;2023-02-28T15:10:16;6.60;89.00
14411;DHT22;7290;50.854;4.354;2023-02-28T15:12:49;6.80;88.20
14411;DHT22;7290;50.854;4.354;2023-02-28T15:15:17;6.90;88.20
14411;DHT22;7290;50.854;4.354;2023-02-28T15:17:48;7.10;88.10
14411;DHT22;7290;50.854;4.354;2023-02-28T15:20:16;7.20;87.20
14411;DHT22;7290;50.854;4.354;2023-02-28T15:22:45;6.60;88.30
14411;DHT22;7290;50.854;4.354;2023-02-28T15:25:15;6.40;89.00
14411;DHT22;7290;50.854;4.354;2023-02-28T15:27:45;6.70;89.40
14411;DHT22;7290;50.854;4.354;2023-02-28T15:30:16;6.50;89.80
14411;DHT22;7290;50.854;4.354;2023-02-28T15:32:43;6.50;90.00
14411;DHT22;7290;50.854;4.354;2023-02-28T15:35:26;6.40;90.20
14411;DHT22;7290;50.854;4.354;2023-02-28T15:37:54;6.60;90.40
14411;DHT22;7290;50.854;4.354;2023-02-28T15:40:25;6.80;90.10
14411;DHT22;7290;50.854;4.354;2023-02-28T15:43:00;6.80;90.10
14411;DHT22;7290;50.854;4.354;2023-02-28T15:45:34;7.20;90.20
14411;DHT22;7290;50.854;4.354;2023-02-28T15:48:03;7.80;89.10
14411;DHT22;7290;50.854;4.354;2023-02-28T15:50:29;7.80;86.90
14411;DHT22;7290;50.854;4.354;2023-02-28T15:52:56;7.30;88.20
14411;DHT22;7290;50.854;4.354;2023-02-28T15:55:26;7.00;89.50
14411;DHT22;7290;50.854;4.354;2023-02-28T15:57:55;7.20;89.10
14411;DHT22;7290;50.854;4.354;2023-02-28T16:00:24;7.00;90.00
14411;DHT22;7290;50.854;4.354;2023-02-28T16:02:50;7.00;90.00
14411;DHT22;7290;50.854;4.354;2023-02-28T16:05:21;6.70;90.60
14411;DHT22;7290;50.854;4.354;2023-02-28T16:07:54;6.90;90.20
14411;DHT22;7290;50.854;4.354;2023-02-28T16:10:21;6.80;90.30
14411;DHT22;7290;50.854;4.354;2023-02-28T16:12:52;6.70;90.30
14411;DHT22;7290;50.854;4.354;2023-02-28T16:15:20;6.70;90.70
14411;DHT22;7290;50.854;4.354;2023-02-28T16:17:47;6.70;90.80
14411;DHT22;7290;50.854;4.354;2023-02-28T16:20:15;6.40;90.80
14411;DHT22;7290;50.854;4.354;2023-02-28T16:22:41;6.60;91.00
14411;DHT22;7290;50.854;4.354;2023-02-28T16:25:11;6.90;90.90
14411;DHT22;7290;50.854;4.354;2023-02-28T16:27:38;7.00;90.40
14411;DHT22;7290;50.854;4.354;2023-02-28T16:30:06;6.40;91.20
14411;DHT22;7290;50.854;4.354;2023-02-28T16:32:35;6.50;91.40
14411;DHT22;7290;50.854;4.354;2023-02-28T16:35:01;6.40;91.60